Flight Track Log - Related Links

Times and Time Zones

All times are in EDT time to prevent confusion due to time zone crossing. See the SWA315 flight status page for this flight to view local times or setup timezone preferences in your user account.

Time Position Orientation Groundspeed Altitude Reporting Facility
EDT Latitude Longitude Course Direction KTS MPH feet Rate Location/Type
Tue 12:48:54 PM 39.8833 -104.6167 90° East 160 184 6,600  Level Denver TRACON
Tue 12:50:00 PM 39.8577 -104.4357 85° East  Level FlightAware Approximate
Tue 12:50:54 PM 39.8833 -104.4333 85° East 287 330 9,800  Level Denver TRACON
Tue 12:51:15 PM 39.8747 -104.4064 113° Southeast 287 330 10,100 1,590 Climbing Denver Center
Tue 12:52:17 PM 39.8736 -104.2708 91° East 342 394 12,000 2,323 Climbing Denver Center
Tue 12:53:19 PM 39.8728 -104.1356 90° East 369 425 14,900 2,661 Climbing Denver Center
Tue 12:54:21 PM 39.8717 -103.9889 91° East 408 470 17,500 2,758 Climbing Denver Center
Tue 12:55:23 PM 39.8764 -103.8231 88° East 428 493 20,600 2,710 Climbing Denver Center
Tue 12:56:25 PM 39.8919 -103.6614 83° East 429 494 23,100 2,304 Climbing Denver Center
Tue 12:57:28 PM 39.9119 -103.4919 81° East 461 531 25,400 2,064 Climbing Denver Center
Tue 12:58:30 PM 39.9319 -103.3194 81° East 476 548 27,400 1,935 Climbing Denver Center
Tue 12:59:32 PM 39.9500 -103.1428 82° East 487 560 29,400 1,742 Climbing Denver Center
Tue 01:00:34 PM 39.9661 -102.9628 83° East 495 570 31,000 1,742 Climbing Denver Center
Tue 01:01:36 PM 39.9783 -102.7797 85° East 502 578 33,000 1,839 Climbing Denver Center
Tue 01:02:38 PM 39.9883 -102.5975 86° East 493 567 34,800 1,355 Climbing Denver Center
Tue 01:03:40 PM 40.0008 -102.3972 85° East 498 573 35,800 1,065 Climbing Denver Center
Tue 01:04:42 PM 40.0086 -102.2219 87° East 505 581 37,000 581 Climbing Denver Center
Tue 01:05:44 PM 40.0194 -102.0178 86° East 505 581 37,000 97 Level Denver Center
Tue 01:06:46 PM 40.0294 -101.8414 86° East 510 587 37,200 532 Climbing Denver Center
Tue 01:07:48 PM 40.0411 -101.6317 86° East 519 597 38,100 871 Climbing Denver Center
Tue 01:08:50 PM 40.0503 -101.4522 86° East 519 597 39,000 435 Climbing Denver Center
Tue 01:09:52 PM 40.0597 -101.2461 87° East 513 590 39,000  Level Denver Center
Tue 01:10:54 PM 40.0681 -101.0683 86° East 514 592 39,000  Level Denver Center
Tue 01:11:56 PM 40.0778 -100.8597 86° East 517 595 39,000  Level Denver Center
Tue 01:12:58 PM 40.0850 -100.6811 87° East 517 595 39,000  Level Denver Center
Tue 01:14:00 PM 40.0950 -100.4742 86° East 514 592 39,000  Level Denver Center
Tue 01:15:02 PM 40.1019 -100.2958 87° East 515 593 39,000  Level Denver Center
Tue 01:16:04 PM 40.1103 -100.0911 87° East 513 590 39,000  Level Denver Center
Tue 01:17:06 PM 40.1169 -99.9169 87° East 509 586 39,000  Level Denver Center
Tue 01:18:08 PM 40.1222 -99.7156 88° East 503 579 39,000  Level Denver Center
Tue 01:19:10 PM 40.1292 -99.5397 87° East 505 581 39,000  Level Denver Center
Tue 01:20:12 PM 40.1358 -99.3356 87° East 506 582 39,000  Level Denver Center
Tue 01:21:13 PM 40.1406 -99.1633 88° East 499 574 39,000  Level Denver Center
Tue 01:22:15 PM 40.1461 -98.9603 88° East 501 577 39,000  Level Denver Center
Tue 01:23:17 PM 40.1514 -98.7850 88° East 503 579 39,000  Level Denver Center
Tue 01:23:35 PM 40.1536 -98.7344 87° East 502 578 39,000  Level Minneapolis Center
Tue 01:24:37 PM 40.1589 -98.5508 88° East 504 580 39,000  Level Minneapolis Center
Tue 01:25:39 PM 40.1619 -98.3639 89° East 508 585 39,000  Level Minneapolis Center
Tue 01:26:40 PM 40.1658 -98.1803 88° East 509 586 39,000  Level Minneapolis Center
Tue 01:27:42 PM 40.1703 -97.9964 88° East 508 585 39,000  Level Minneapolis Center
Tue 01:28:44 PM 40.1736 -97.7733 89° East 510 587 39,000  Level Minneapolis Center
Tue 01:29:46 PM 40.1775 -97.5883 88° East 511 588 39,000  Level Minneapolis Center
Tue 01:30:47 PM 40.1806 -97.4028 89° East 511 588 39,000  Level Minneapolis Center
Tue 01:31:49 PM 40.1822 -97.2147 89° East 514 592 39,000  Level Minneapolis Center
Tue 01:32:51 PM 40.1844 -97.0278 89° East 516 594 39,000  Level Minneapolis Center
Tue 01:33:53 PM 40.1842 -96.8367 90° East 520 598 39,000  Level Minneapolis Center
Tue 01:34:55 PM 40.1869 -96.6122 89° East 519 597 39,000  Level Minneapolis Center
Tue 01:35:56 PM 40.1883 -96.4275 89° East 514 592 39,000  Level Minneapolis Center
Tue 01:36:58 PM 40.1894 -96.2411 89° East 514 592 39,000  Level Minneapolis Center
Tue 01:38:00 PM 40.1911 -96.0564 89° East 513 590 39,000  Level Minneapolis Center
Tue 01:39:02 PM 40.1919 -95.8706 90° East 513 590 39,000  Level Minneapolis Center
Tue 01:40:03 PM 40.1917 -95.6836 90° East 516 594 39,000  Level Minneapolis Center
Tue 01:41:05 PM 40.1914 -95.4608 90° East 514 592 39,000  Level Minneapolis Center
Tue 01:42:07 PM 40.1922 -95.2756 90° East 512 589 39,000  Level Minneapolis Center
Tue 01:43:09 PM 40.1906 -95.0903 91° East 512 589 39,000  Level Minneapolis Center
Tue 01:44:10 PM 40.1889 -94.9053 91° East 511 588 39,000  Level Minneapolis Center
Tue 01:45:12 PM 40.1889 -94.7194 90° East 513 590 39,000  Level Minneapolis Center
Tue 01:46:26 PM 40.1867 -94.5192 91° East 513 590 39,000  Level Minneapolis Center
Tue 01:47:28 PM 40.1844 -94.2969 91° East 513 590 39,000  Level Minneapolis Center
Tue 01:48:10 PM 40.1811 -94.1567 92° East 515 593 39,000  Level Kansas City Center
Tue 01:49:10 PM 40.1767 -93.9989 92° East 518 596 39,000  Level Kansas City Center
Tue 01:50:50 PM 40.1761 -93.6669 90° East 513 590 39,000  Level Chicago Center
Tue 01:51:15 PM 40.1778 -93.5936 88° East 512 589 39,000  Level Kansas City Center
Tue 01:52:16 PM 40.1833 -93.4114 88° East 508 585 39,000  Level Kansas City Center
Tue 01:53:19 PM 40.1878 -93.2303 88° East 503 579 39,000  Level Kansas City Center
Tue 01:54:19 PM 40.1931 -93.0336 88° East 506 582 39,000  Level Kansas City Center
Tue 01:55:20 PM 40.1969 -92.8306 88° East 502 578 39,000  Level Kansas City Center
Tue 01:56:24 PM 40.1994 -92.6558 89° East 502 578 39,000  Level Kansas City Center
Tue 01:57:25 PM 40.2042 -92.4828 88° East 500 575 39,000  Level Kansas City Center
Tue 01:58:28 PM 40.2078 -92.2975 88° East 526 605 39,000  Level Kansas City Center
Tue 01:59:29 PM 40.2111 -92.0811 89° East 509 586 39,000  Level Kansas City Center
Tue 02:00:33 PM 40.2122 -91.8986 89° East 508 585 39,000  Level Kansas City Center
Tue 02:01:34 PM 40.2144 -91.7153 89° East 508 585 39,000  Level Kansas City Center
Tue 02:02:35 PM 40.2167 -91.5325 89° East 507 583 39,000  Level Kansas City Center
Tue 02:03:39 PM 40.2175 -91.3128 90° East 507 583 39,000  Level Kansas City Center
Tue 02:04:39 PM 40.2197 -91.1294 89° East 507 583 39,000  Level Kansas City Center
Tue 02:05:43 PM 40.2197 -90.9464 90° East 507 583 39,000  Level Kansas City Center
Tue 02:06:16 PM 40.2211 -90.8531 89° East 507 583 39,000  Level Chicago Center
Tue 02:07:17 PM 40.2217 -90.6714 90° East 504 580 39,000  Level Chicago Center
Tue 02:08:19 PM 40.2214 -90.4522 90° East 504 580 39,000  Level Chicago Center
Tue 02:09:21 PM 40.2211 -90.2717 90° East 503 579 39,000  Level Chicago Center
Tue 02:10:23 PM 40.2192 -90.0900 91° East 503 579 39,000  Level Chicago Center
Tue 02:11:24 PM 40.2186 -89.9097 90° East 500 575 39,000  Level Chicago Center
Tue 02:12:26 PM 40.2178 -89.7294 90° East 501 577 39,000 -97 Level Chicago Center
Tue 02:13:28 PM 40.2158 -89.5122 91° East 503 579 38,800 -532 Descending Chicago Center
Tue 02:14:30 PM 40.2142 -89.3322 91° East 499 574 37,900 -919 Descending Chicago Center
Tue 02:15:32 PM 40.2131 -89.1522 90° East 498 573 36,900 -919 Descending Chicago Center
Tue 02:16:34 PM 40.2106 -88.9717 91° East 499 574 36,000 -927 Descending Chicago Center
Tue 02:17:35 PM 40.2075 -88.7944 91° East 492 566 35,000 -927 Descending Chicago Center
Tue 02:18:37 PM 40.2050 -88.6217 91° East 480 552 34,100 -968 Descending Chicago Center
Tue 02:19:39 PM 40.2017 -88.4211 91° East 481 554 33,000 -968 Descending Chicago Center
Tue 02:20:41 PM 40.1983 -88.2472 91° East 482 555 32,100 -1,597 Descending Chicago Center
Tue 02:21:43 PM 40.1956 -88.0750 91° East 479 551 29,700 -2,661 Descending Chicago Center
Tue 02:22:45 PM 40.1917 -87.8875 91° East 484 557 26,600 -2,585 Descending Chicago Center
Tue 02:23:46 PM 40.1875 -87.7211 92° East 480 552 24,400 -2,244 Descending Indianapolis Center
Tue 02:24:48 PM 40.1828 -87.5375 92° East 451 519 22,000 -2,177 Descending Chicago Center
Tue 02:25:50 PM 40.1792 -87.3814 92° East 436 502 19,900 -1,984 Descending Chicago Center
Tue 02:26:52 PM 40.1750 -87.2292 92° East 426 490 17,900 -1,935 Descending Chicago Center
Tue 02:27:54 PM 40.1708 -87.0806 92° East 416 479 15,900 -2,226 Descending Chicago Center
Tue 02:28:56 PM 40.1653 -86.9050 92° East 408 470 13,300 -1,574 Descending Chicago Center
Tue 02:29:56 PM 40.1125 -86.8036 124° Southeast 393 452 12,700 -1,180 Descending Indianapolis Center
Tue 02:30:58 PM 40.0317 -86.7483 152° Southeast 355 409 10,900 -1,306 Descending Indianapolis Center
Tue 02:32:00 PM 39.9542 -86.6967 153° Southeast 333 383 10,000 -976 Descending Indianapolis Center
Tue 02:33:01 PM 39.8889 -86.6453 149° Southeast 302 348 8,900 -1,268 Descending Indianapolis Center
Tue 02:34:03 PM 39.8386 -86.5706 131° Southeast 287 330 7,400 -1,210 Descending Indianapolis Center
Tue 02:35:05 PM 39.7717 -86.5514 168° South 266 306 6,400 -1,024 Descending Indianapolis Center
Tue 02:36:06 PM 39.6964 -86.5422 175° South 255 293 5,300 -1,097 Descending Indianapolis Center
Tue 02:38:11 PM 39.5833 -86.4833 158° South 205 236 3,000 -798 Descending Indianapolis TRACON
Tue 02:38:59 PM 39.6000 -86.4500 57° Northeast 176 203 3,000 -167 Level Indianapolis TRACON
Tue 02:39:59 PM 39.6333 -86.4000 49° Northeast 165 190 2,700 -526 Descending Indianapolis TRACON
Tue 02:40:53 PM 39.6667 -86.3667 38° Northeast 145 167 2,000 -700 Descending Indianapolis TRACON
Tue 02:41:59 PM 39.6833 -86.3333 57° Northeast 126 145 1,300 -636 Descending Indianapolis TRACON

Login

Don't have an account? Register now (free) for customized features, flight alerts, and more!